sensor_id;sensor_type;location;lat;lon;timestamp;P1;durP1;ratioP1;P2;durP2;ratioP2
34565;SDS011;20803;42.676;26.348;2022-07-06T00:01:06;7.70;;;4.50;;
34565;SDS011;20803;42.676;26.348;2022-07-06T00:03:32;5.77;;;4.00;;
34565;SDS011;20803;42.676;26.348;2022-07-06T00:05:57;4.13;;;3.70;;
34565;SDS011;20803;42.676;26.348;2022-07-06T00:08:22;5.07;;;4.23;;
34565;SDS011;20803;42.676;26.348;2022-07-06T00:10:48;5.70;;;4.10;;
34565;SDS011;20803;42.676;26.348;2022-07-06T00:13:13;5.53;;;4.33;;
34565;SDS011;20803;42.676;26.348;2022-07-06T00:15:39;5.17;;;4.10;;
34565;SDS011;20803;42.676;26.348;2022-07-06T00:18:04;8.80;;;4.07;;
34565;SDS011;20803;42.676;26.348;2022-07-06T00:20:30;7.43;;;3.70;;
34565;SDS011;20803;42.676;26.348;2022-07-06T00:22:55;8.67;;;4.30;;
34565;SDS011;20803;42.676;26.348;2022-07-06T00:25:21;6.90;;;4.40;;
34565;SDS011;20803;42.676;26.348;2022-07-06T00:27:46;7.93;;;3.90;;
34565;SDS011;20803;42.676;26.348;2022-07-06T00:30:11;6.90;;;4.07;;
34565;SDS011;20803;42.676;26.348;2022-07-06T00:32:37;6.63;;;4.00;;
34565;SDS011;20803;42.676;26.348;2022-07-06T00:35:02;5.40;;;3.73;;
34565;SDS011;20803;42.676;26.348;2022-07-06T00:37:29;7.10;;;3.87;;
34565;SDS011;20803;42.676;26.348;2022-07-06T00:39:54;6.43;;;3.90;;
34565;SDS011;20803;42.676;26.348;2022-07-06T00:42:20;5.90;;;4.23;;
34565;SDS011;20803;42.676;26.348;2022-07-06T00:44:45;7.33;;;4.87;;
34565;SDS011;20803;42.676;26.348;2022-07-06T00:47:10;5.07;;;3.60;;
34565;SDS011;20803;42.676;26.348;2022-07-06T00:49:36;5.33;;;3.73;;
34565;SDS011;20803;42.676;26.348;2022-07-06T00:52:20;4.37;;;3.87;;
34565;SDS011;20803;42.676;26.348;2022-07-06T00:54:45;6.00;;;4.17;;
34565;SDS011;20803;42.676;26.348;2022-07-06T00:57:11;4.53;;;4.13;;
34565;SDS011;20803;42.676;26.348;2022-07-06T00:59:37;7.47;;;3.87;;
34565;SDS011;20803;42.676;26.348;2022-07-06T01:02:03;4.07;;;3.67;;
34565;SDS011;20803;42.676;26.348;2022-07-06T01:04:28;4.60;;;4.10;;
34565;SDS011;20803;42.676;26.348;2022-07-06T01:06:54;4.47;;;3.87;;
34565;SDS011;20803;42.676;26.348;2022-07-06T01:09:21;8.10;;;4.03;;
34565;SDS011;20803;42.676;26.348;2022-07-06T01:11:47;5.13;;;3.70;;
34565;SDS011;20803;42.676;26.348;2022-07-06T01:14:13;7.93;;;4.17;;
34565;SDS011;20803;42.676;26.348;2022-07-06T01:16:40;5.13;;;3.90;;
34565;SDS011;20803;42.676;26.348;2022-07-06T01:19:05;5.17;;;4.10;;
34565;SDS011;20803;42.676;26.348;2022-07-06T01:21:31;10.83;;;3.90;;
34565;SDS011;20803;42.676;26.348;2022-07-06T01:23:56;5.03;;;3.80;;
34565;SDS011;20803;42.676;26.348;2022-07-06T01:26:22;5.63;;;4.03;;
34565;SDS011;20803;42.676;26.348;2022-07-06T01:28:48;6.00;;;4.00;;
34565;SDS011;20803;42.676;26.348;2022-07-06T01:31:16;6.70;;;3.67;;
34565;SDS011;20803;42.676;26.348;2022-07-06T01:33:44;4.63;;;3.70;;
34565;SDS011;20803;42.676;26.348;2022-07-06T01:36:10;4.70;;;3.57;;
34565;SDS011;20803;42.676;26.348;2022-07-06T01:38:56;5.27;;;3.87;;
34565;SDS011;20803;42.676;26.348;2022-07-06T01:41:23;5.93;;;3.90;;
34565;SDS011;20803;42.676;26.348;2022-07-06T01:43:48;4.87;;;4.30;;
34565;SDS011;20803;42.676;26.348;2022-07-06T01:46:14;6.93;;;4.10;;
34565;SDS011;20803;42.676;26.348;2022-07-06T01:48:40;5.00;;;4.03;;
34565;SDS011;20803;42.676;26.348;2022-07-06T01:51:05;6.13;;;4.00;;
34565;SDS011;20803;42.676;26.348;2022-07-06T01:53:31;4.43;;;3.73;;
34565;SDS011;20803;42.676;26.348;2022-07-06T01:55:57;6.60;;;4.10;;
34565;SDS011;20803;42.676;26.348;2022-07-06T01:58:22;4.77;;;4.03;;
34565;SDS011;20803;42.676;26.348;2022-07-06T02:00:48;5.17;;;4.27;;
34565;SDS011;20803;42.676;26.348;2022-07-06T02:03:13;6.73;;;3.80;;
34565;SDS011;20803;42.676;26.348;2022-07-06T02:05:39;6.13;;;4.03;;
34565;SDS011;20803;42.676;26.348;2022-07-06T02:08:04;6.53;;;3.83;;
34565;SDS011;20803;42.676;26.348;2022-07-06T02:10:30;4.33;;;3.93;;
34565;SDS011;20803;42.676;26.348;2022-07-06T02:12:55;5.93;;;4.23;;
34565;SDS011;20803;42.676;26.348;2022-07-06T02:15:21;5.13;;;4.27;;
34565;SDS011;20803;42.676;26.348;2022-07-06T02:17:46;6.40;;;3.87;;
34565;SDS011;20803;42.676;26.348;2022-07-06T02:20:12;7.30;;;4.73;;
34565;SDS011;20803;42.676;26.348;2022-07-06T02:22:37;5.60;;;4.53;;
34565;SDS011;20803;42.676;26.348;2022-07-06T02:25:03;8.13;;;4.20;;
34565;SDS011;20803;42.676;26.348;2022-07-06T02:27:29;4.87;;;4.33;;
34565;SDS011;20803;42.676;26.348;2022-07-06T02:29:54;7.37;;;5.00;;
34565;SDS011;20803;42.676;26.348;2022-07-06T02:32:20;5.37;;;4.80;;
34565;SDS011;20803;42.676;26.348;2022-07-06T02:34:45;6.70;;;6.10;;
34565;SDS011;20803;42.676;26.348;2022-07-06T02:37:10;5.67;;;4.87;;
34565;SDS011;20803;42.676;26.348;2022-07-06T02:39:36;14.73;;;4.60;;
34565;SDS011;20803;42.676;26.348;2022-07-06T02:42:01;4.63;;;4.10;;
34565;SDS011;20803;42.676;26.348;2022-07-06T02:44:27;4.77;;;3.90;;
34565;SDS011;20803;42.676;26.348;2022-07-06T02:46:52;5.33;;;4.60;;
34565;SDS011;20803;42.676;26.348;2022-07-06T02:49:18;6.63;;;5.17;;
34565;SDS011;20803;42.676;26.348;2022-07-06T02:51:43;6.23;;;4.73;;
34565;SDS011;20803;42.676;26.348;2022-07-06T02:54:09;7.20;;;4.30;;
34565;SDS011;20803;42.676;26.348;2022-07-06T02:56:34;6.43;;;4.40;;
34565;SDS011;20803;42.676;26.348;2022-07-06T02:58:59;5.77;;;4.83;;
34565;SDS011;20803;42.676;26.348;2022-07-06T03:01:25;8.50;;;5.23;;
34565;SDS011;20803;42.676;26.348;2022-07-06T03:03:51;8.93;;;5.67;;
34565;SDS011;20803;42.676;26.348;2022-07-06T03:06:16;9.27;;;5.57;;
34565;SDS011;20803;42.676;26.348;2022-07-06T03:08:42;8.60;;;5.07;;
34565;SDS011;20803;42.676;26.348;2022-07-06T03:11:07;9.43;;;6.13;;
34565;SDS011;20803;42.676;26.348;2022-07-06T03:13:34;6.83;;;5.63;;
34565;SDS011;20803;42.676;26.348;2022-07-06T03:15:59;7.10;;;5.80;;
34565;SDS011;20803;42.676;26.348;2022-07-06T03:18:25;8.30;;;5.70;;
34565;SDS011;20803;42.676;26.348;2022-07-06T03:20:50;9.43;;;6.87;;
34565;SDS011;20803;42.676;26.348;2022-07-06T03:23:16;9.80;;;6.63;;
34565;SDS011;20803;42.676;26.348;2022-07-06T03:25:41;9.07;;;6.40;;
34565;SDS011;20803;42.676;26.348;2022-07-06T03:28:06;7.43;;;6.00;;
34565;SDS011;20803;42.676;26.348;2022-07-06T03:30:32;11.10;;;9.40;;
34565;SDS011;20803;42.676;26.348;2022-07-06T03:32:57;13.47;;;7.77;;
34565;SDS011;20803;42.676;26.348;2022-07-06T03:35:23;7.07;;;6.37;;
34565;SDS011;20803;42.676;26.348;2022-07-06T03:37:48;8.87;;;6.10;;
34565;SDS011;20803;42.676;26.348;2022-07-06T03:40:14;10.63;;;6.57;;
34565;SDS011;20803;42.676;26.348;2022-07-06T03:42:40;7.47;;;6.20;;
34565;SDS011;20803;42.676;26.348;2022-07-06T03:45:05;8.07;;;6.37;;
34565;SDS011;20803;42.676;26.348;2022-07-06T03:47:31;9.40;;;6.40;;
34565;SDS011;20803;42.676;26.348;2022-07-06T03:49:57;9.03;;;5.83;;
34565;SDS011;20803;42.676;26.348;2022-07-06T03:52:22;7.03;;;5.50;;
34565;SDS011;20803;42.676;26.348;2022-07-06T03:54:48;6.77;;;5.87;;
34565;SDS011;20803;42.676;26.348;2022-07-06T03:57:13;5.27;;;4.57;;
34565;SDS011;20803;42.676;26.348;2022-07-06T03:59:39;6.60;;;4.87;;
34565;SDS011;20803;42.676;26.348;2022-07-06T04:02:05;7.60;;;5.60;;
34565;SDS011;20803;42.676;26.348;2022-07-06T04:04:31;6.83;;;5.07;;
34565;SDS011;20803;42.676;26.348;2022-07-06T04:06:58;5.63;;;5.10;;
34565;SDS011;20803;42.676;26.348;2022-07-06T04:09:23;9.93;;;5.10;;
34565;SDS011;20803;42.676;26.348;2022-07-06T04:11:49;9.73;;;5.00;;
34565;SDS011;20803;42.676;26.348;2022-07-06T04:14:14;9.10;;;5.30;;
34565;SDS011;20803;42.676;26.348;2022-07-06T04:16:40;6.27;;;5.27;;
34565;SDS011;20803;42.676;26.348;2022-07-06T04:19:05;7.80;;;5.43;;
34565;SDS011;20803;42.676;26.348;2022-07-06T04:21:30;9.00;;;5.40;;
34565;SDS011;20803;42.676;26.348;2022-07-06T04:23:56;7.10;;;5.37;;
34565;SDS011;20803;42.676;26.348;2022-07-06T04:26:21;6.90;;;5.10;;
34565;SDS011;20803;42.676;26.348;2022-07-06T04:28:47;8.47;;;5.30;;
34565;SDS011;20803;42.676;26.348;2022-07-06T04:31:12;14.80;;;5.97;;
34565;SDS011;20803;42.676;26.348;2022-07-06T04:33:40;14.10;;;5.40;;
34565;SDS011;20803;42.676;26.348;2022-07-06T04:36:07;8.43;;;5.70;;
34565;SDS011;20803;42.676;26.348;2022-07-06T04:38:32;8.67;;;5.87;;
34565;SDS011;20803;42.676;26.348;2022-07-06T04:40:58;9.73;;;6.20;;
34565;SDS011;20803;42.676;26.348;2022-07-06T04:43:23;15.33;;;6.40;;
34565;SDS011;20803;42.676;26.348;2022-07-06T04:45:49;9.13;;;6.33;;
34565;SDS011;20803;42.676;26.348;2022-07-06T04:48:14;8.17;;;6.23;;
34565;SDS011;20803;42.676;26.348;2022-07-06T04:50:39;10.53;;;5.60;;
34565;SDS011;20803;42.676;26.348;2022-07-06T04:53:05;8.13;;;6.10;;
34565;SDS011;20803;42.676;26.348;2022-07-06T04:55:30;9.30;;;5.87;;
34565;SDS011;20803;42.676;26.348;2022-07-06T04:57:56;11.77;;;6.00;;
34565;SDS011;20803;42.676;26.348;2022-07-06T05:00:21;8.63;;;5.50;;
34565;SDS011;20803;42.676;26.348;2022-07-06T05:02:47;6.03;;;5.03;;
34565;SDS011;20803;42.676;26.348;2022-07-06T05:05:12;8.73;;;5.63;;
34565;SDS011;20803;42.676;26.348;2022-07-06T05:07:38;5.90;;;5.33;;
34565;SDS011;20803;42.676;26.348;2022-07-06T05:10:08;8.37;;;6.00;;
34565;SDS011;20803;42.676;26.348;2022-07-06T05:12:34;6.60;;;5.37;;
34565;SDS011;20803;42.676;26.348;2022-07-06T05:15:00;10.83;;;6.30;;
34565;SDS011;20803;42.676;26.348;2022-07-06T05:17:26;8.13;;;5.97;;
34565;SDS011;20803;42.676;26.348;2022-07-06T05:19:51;12.00;;;6.03;;
34565;SDS011;20803;42.676;26.348;2022-07-06T05:22:17;9.50;;;5.70;;
34565;SDS011;20803;42.676;26.348;2022-07-06T05:24:44;8.33;;;6.27;;
34565;SDS011;20803;42.676;26.348;2022-07-06T05:27:09;14.07;;;6.40;;
34565;SDS011;20803;42.676;26.348;2022-07-06T05:29:35;10.77;;;6.30;;
34565;SDS011;20803;42.676;26.348;2022-07-06T05:32:00;13.00;;;6.53;;
34565;SDS011;20803;42.676;26.348;2022-07-06T05:34:27;9.07;;;6.07;;
34565;SDS011;20803;42.676;26.348;2022-07-06T05:36:52;6.10;;;5.50;;
34565;SDS011;20803;42.676;26.348;2022-07-06T05:39:17;8.23;;;5.87;;
34565;SDS011;20803;42.676;26.348;2022-07-06T05:41:46;12.97;;;5.70;;
34565;SDS011;20803;42.676;26.348;2022-07-06T05:44:12;9.70;;;6.20;;
34565;SDS011;20803;42.676;26.348;2022-07-06T05:46:37;6.13;;;5.53;;
34565;SDS011;20803;42.676;26.348;2022-07-06T05:49:03;6.50;;;5.90;;
34565;SDS011;20803;42.676;26.348;2022-07-06T05:51:47;8.13;;;5.70;;
34565;SDS011;20803;42.676;26.348;2022-07-06T05:54:12;7.10;;;5.87;;
34565;SDS011;20803;42.676;26.348;2022-07-06T05:56:38;10.37;;;6.30;;
34565;SDS011;20803;42.676;26.348;2022-07-06T05:59:03;7.37;;;6.03;;
34565;SDS011;20803;42.676;26.348;2022-07-06T06:01:28;12.43;;;6.20;;
34565;SDS011;20803;42.676;26.348;2022-07-06T06:03:54;12.57;;;6.53;;
34565;SDS011;20803;42.676;26.348;2022-07-06T06:06:19;8.90;;;6.67;;
34565;SDS011;20803;42.676;26.348;2022-07-06T06:08:45;7.40;;;6.13;;
34565;SDS011;20803;42.676;26.348;2022-07-06T06:11:10;7.33;;;5.97;;
34565;SDS011;20803;42.676;26.348;2022-07-06T06:13:35;9.43;;;6.43;;
34565;SDS011;20803;42.676;26.348;2022-07-06T06:16:01;6.50;;;5.87;;
34565;SDS011;20803;42.676;26.348;2022-07-06T06:18:26;12.17;;;6.87;;
34565;SDS011;20803;42.676;26.348;2022-07-06T06:20:52;7.33;;;6.33;;
34565;SDS011;20803;42.676;26.348;2022-07-06T06:23:18;10.03;;;6.40;;
34565;SDS011;20803;42.676;26.348;2022-07-06T06:25:45;9.90;;;7.17;;
34565;SDS011;20803;42.676;26.348;2022-07-06T06:28:10;10.37;;;6.67;;
34565;SDS011;20803;42.676;26.348;2022-07-06T06:30:37;10.10;;;6.53;;
34565;SDS011;20803;42.676;26.348;2022-07-06T06:33:10;9.90;;;6.27;;
34565;SDS011;20803;42.676;26.348;2022-07-06T06:35:45;9.63;;;6.00;;
34565;SDS011;20803;42.676;26.348;2022-07-06T06:38:11;8.50;;;7.23;;
34565;SDS011;20803;42.676;26.348;2022-07-06T06:40:37;12.27;;;6.77;;
34565;SDS011;20803;42.676;26.348;2022-07-06T06:43:03;8.50;;;6.53;;
34565;SDS011;20803;42.676;26.348;2022-07-06T06:45:29;8.50;;;6.10;;
34565;SDS011;20803;42.676;26.348;2022-07-06T06:47:55;7.33;;;6.33;;
34565;SDS011;20803;42.676;26.348;2022-07-06T06:50:20;7.80;;;6.60;;
34565;SDS011;20803;42.676;26.348;2022-07-06T06:52:48;9.07;;;5.97;;
34565;SDS011;20803;42.676;26.348;2022-07-06T06:55:13;6.67;;;5.93;;
34565;SDS011;20803;42.676;26.348;2022-07-06T06:57:39;6.80;;;6.13;;
34565;SDS011;20803;42.676;26.348;2022-07-06T07:00:04;9.30;;;7.07;;
34565;SDS011;20803;42.676;26.348;2022-07-06T07:02:30;10.30;;;6.73;;
34565;SDS011;20803;42.676;26.348;2022-07-06T07:04:56;12.30;;;7.20;;
34565;SDS011;20803;42.676;26.348;2022-07-06T07:07:21;6.70;;;6.10;;
34565;SDS011;20803;42.676;26.348;2022-07-06T07:09:47;8.40;;;6.90;;
34565;SDS011;20803;42.676;26.348;2022-07-06T07:12:12;7.23;;;6.60;;
34565;SDS011;20803;42.676;26.348;2022-07-06T07:14:40;7.47;;;6.67;;
34565;SDS011;20803;42.676;26.348;2022-07-06T07:17:06;9.60;;;6.60;;
34565;SDS011;20803;42.676;26.348;2022-07-06T07:19:31;7.50;;;5.93;;
34565;SDS011;20803;42.676;26.348;2022-07-06T07:21:57;7.03;;;5.83;;
34565;SDS011;20803;42.676;26.348;2022-07-06T07:24:22;6.77;;;6.07;;
34565;SDS011;20803;42.676;26.348;2022-07-06T07:26:47;8.60;;;5.93;;
34565;SDS011;20803;42.676;26.348;2022-07-06T07:29:13;7.13;;;5.40;;
34565;SDS011;20803;42.676;26.348;2022-07-06T07:31:38;6.10;;;5.43;;
34565;SDS011;20803;42.676;26.348;2022-07-06T07:34:04;5.20;;;4.70;;
34565;SDS011;20803;42.676;26.348;2022-07-06T07:36:29;7.00;;;5.87;;
34565;SDS011;20803;42.676;26.348;2022-07-06T07:38:54;5.67;;;4.90;;
34565;SDS011;20803;42.676;26.348;2022-07-06T07:41:20;9.10;;;4.23;;
34565;SDS011;20803;42.676;26.348;2022-07-06T07:43:45;9.13;;;4.80;;
34565;SDS011;20803;42.676;26.348;2022-07-06T07:46:11;8.00;;;4.93;;
34565;SDS011;20803;42.676;26.348;2022-07-06T07:48:36;5.40;;;4.53;;
34565;SDS011;20803;42.676;26.348;2022-07-06T07:51:02;7.77;;;4.67;;
34565;SDS011;20803;42.676;26.348;2022-07-06T07:53:27;6.13;;;4.80;;
34565;SDS011;20803;42.676;26.348;2022-07-06T07:55:53;5.47;;;4.97;;
34565;SDS011;20803;42.676;26.348;2022-07-06T07:58:18;7.50;;;5.60;;
34565;SDS011;20803;42.676;26.348;2022-07-06T08:00:44;5.00;;;4.60;;
34565;SDS011;20803;42.676;26.348;2022-07-06T08:03:11;5.63;;;4.20;;
34565;SDS011;20803;42.676;26.348;2022-07-06T08:05:36;5.30;;;4.80;;
34565;SDS011;20803;42.676;26.348;2022-07-06T08:08:02;5.17;;;4.67;;
34565;SDS011;20803;42.676;26.348;2022-07-06T08:10:28;13.63;;;5.40;;
34565;SDS011;20803;42.676;26.348;2022-07-06T08:12:53;4.80;;;4.23;;
34565;SDS011;20803;42.676;26.348;2022-07-06T08:15:19;5.23;;;4.80;;
34565;SDS011;20803;42.676;26.348;2022-07-06T08:17:44;5.03;;;4.53;;
34565;SDS011;20803;42.676;26.348;2022-07-06T08:20:10;8.43;;;4.90;;
34565;SDS011;20803;42.676;26.348;2022-07-06T08:22:36;6.00;;;4.30;;
34565;SDS011;20803;42.676;26.348;2022-07-06T08:25:02;5.40;;;4.90;;
34565;SDS011;20803;42.676;26.348;2022-07-06T08:27:28;6.57;;;5.37;;
34565;SDS011;20803;42.676;26.348;2022-07-06T08:29:53;6.23;;;4.70;;
34565;SDS011;20803;42.676;26.348;2022-07-06T08:32:19;5.27;;;4.77;;
34565;SDS011;20803;42.676;26.348;2022-07-06T08:34:45;5.23;;;4.73;;
34565;SDS011;20803;42.676;26.348;2022-07-06T08:37:11;5.80;;;5.20;;
34565;SDS011;20803;42.676;26.348;2022-07-06T08:39:36;7.40;;;5.03;;
34565;SDS011;20803;42.676;26.348;2022-07-06T08:42:02;5.50;;;5.00;;
34565;SDS011;20803;42.676;26.348;2022-07-06T08:44:27;6.10;;;5.00;;
34565;SDS011;20803;42.676;26.348;2022-07-06T08:46:54;6.33;;;5.00;;
34565;SDS011;20803;42.676;26.348;2022-07-06T08:49:23;4.90;;;4.13;;
34565;SDS011;20803;42.676;26.348;2022-07-06T08:51:50;5.03;;;4.63;;
34565;SDS011;20803;42.676;26.348;2022-07-06T08:54:16;5.60;;;5.10;;
34565;SDS011;20803;42.676;26.348;2022-07-06T08:56:43;7.70;;;4.67;;
34565;SDS011;20803;42.676;26.348;2022-07-06T08:59:08;5.90;;;5.10;;
34565;SDS011;20803;42.676;26.348;2022-07-06T09:01:36;5.57;;;5.00;;
34565;SDS011;20803;42.676;26.348;2022-07-06T09:04:04;8.60;;;5.33;;
34565;SDS011;20803;42.676;26.348;2022-07-06T09:06:32;5.87;;;5.10;;
34565;SDS011;20803;42.676;26.348;2022-07-06T09:08:58;7.43;;;5.10;;
34565;SDS011;20803;42.676;26.348;2022-07-06T09:11:25;6.83;;;5.27;;
34565;SDS011;20803;42.676;26.348;2022-07-06T09:13:50;7.70;;;5.37;;
34565;SDS011;20803;42.676;26.348;2022-07-06T09:16:17;5.77;;;5.27;;
34565;SDS011;20803;42.676;26.348;2022-07-06T09:18:43;7.40;;;5.30;;
34565;SDS011;20803;42.676;26.348;2022-07-06T09:21:09;7.30;;;5.00;;
34565;SDS011;20803;42.676;26.348;2022-07-06T09:23:35;6.23;;;5.30;;
34565;SDS011;20803;42.676;26.348;2022-07-06T09:26:02;6.67;;;5.20;;
34565;SDS011;20803;42.676;26.348;2022-07-06T09:28:42;7.57;;;5.50;;
34565;SDS011;20803;42.676;26.348;2022-07-06T09:31:09;6.57;;;5.00;;
34565;SDS011;20803;42.676;26.348;2022-07-06T09:33:35;8.47;;;5.37;;
34565;SDS011;20803;42.676;26.348;2022-07-06T09:36:01;11.80;;;5.80;;
34565;SDS011;20803;42.676;26.348;2022-07-06T09:38:27;5.87;;;4.63;;
34565;SDS011;20803;42.676;26.348;2022-07-06T09:40:53;6.13;;;4.87;;
34565;SDS011;20803;42.676;26.348;2022-07-06T09:43:20;5.63;;;4.23;;
34565;SDS011;20803;42.676;26.348;2022-07-06T09:45:54;5.10;;;4.60;;
34565;SDS011;20803;42.676;26.348;2022-07-06T09:48:22;5.60;;;5.03;;
34565;SDS011;20803;42.676;26.348;2022-07-06T09:50:48;6.80;;;5.30;;
34565;SDS011;20803;42.676;26.348;2022-07-06T09:53:18;5.77;;;4.90;;
34565;SDS011;20803;42.676;26.348;2022-07-06T09:55:48;5.47;;;4.83;;
34565;SDS011;20803;42.676;26.348;2022-07-06T09:58:16;6.53;;;4.90;;
34565;SDS011;20803;42.676;26.348;2022-07-06T10:00:45;5.40;;;4.90;;
34565;SDS011;20803;42.676;26.348;2022-07-06T10:03:12;5.03;;;4.53;;
34565;SDS011;20803;42.676;26.348;2022-07-06T10:05:41;7.03;;;5.53;;
34565;SDS011;20803;42.676;26.348;2022-07-06T10:08:08;7.03;;;5.40;;
34565;SDS011;20803;42.676;26.348;2022-07-06T10:10:34;7.50;;;5.30;;
34565;SDS011;20803;42.676;26.348;2022-07-06T10:13:01;6.73;;;4.70;;
34565;SDS011;20803;42.676;26.348;2022-07-06T10:15:28;7.13;;;5.00;;
34565;SDS011;20803;42.676;26.348;2022-07-06T10:18:01;8.17;;;5.40;;
34565;SDS011;20803;42.676;26.348;2022-07-06T10:20:30;6.67;;;4.73;;
34565;SDS011;20803;42.676;26.348;2022-07-06T10:22:59;5.33;;;4.83;;
34565;SDS011;20803;42.676;26.348;2022-07-06T10:25:26;8.17;;;5.30;;
34565;SDS011;20803;42.676;26.348;2022-07-06T10:27:54;6.10;;;5.40;;
34565;SDS011;20803;42.676;26.348;2022-07-06T10:30:20;5.50;;;5.00;;
34565;SDS011;20803;42.676;26.348;2022-07-06T10:32:48;5.47;;;4.97;;
34565;SDS011;20803;42.676;26.348;2022-07-06T10:35:17;6.33;;;5.70;;
34565;SDS011;20803;42.676;26.348;2022-07-06T10:37:44;6.57;;;6.00;;
34565;SDS011;20803;42.676;26.348;2022-07-06T10:40:12;9.33;;;6.73;;
34565;SDS011;20803;42.676;26.348;2022-07-06T10:42:57;8.93;;;5.37;;
34565;SDS011;20803;42.676;26.348;2022-07-06T10:50:40;5.63;;;4.80;;
34565;SDS011;20803;42.676;26.348;2022-07-06T10:53:11;5.83;;;4.33;;
34565;SDS011;20803;42.676;26.348;2022-07-06T10:55:58;6.27;;;4.73;;
34565;SDS011;20803;42.676;26.348;2022-07-06T11:01:13;6.10;;;5.30;;
34565;SDS011;20803;42.676;26.348;2022-07-06T11:03:43;6.50;;;5.90;;
34565;SDS011;20803;42.676;26.348;2022-07-06T11:08:55;9.50;;;5.57;;
34565;SDS011;20803;42.676;26.348;2022-07-06T11:16:26;7.07;;;5.43;;
34565;SDS011;20803;42.676;26.348;2022-07-06T11:19:03;7.83;;;5.17;;
34565;SDS011;20803;42.676;26.348;2022-07-06T11:21:38;5.60;;;5.07;;
34565;SDS011;20803;42.676;26.348;2022-07-06T11:24:13;5.23;;;4.63;;
34565;SDS011;20803;42.676;26.348;2022-07-06T11:26:41;6.77;;;5.27;;
34565;SDS011;20803;42.676;26.348;2022-07-06T11:29:08;6.30;;;5.53;;
34565;SDS011;20803;42.676;26.348;2022-07-06T11:31:36;8.70;;;6.47;;
34565;SDS011;20803;42.676;26.348;2022-07-06T11:34:05;6.10;;;5.50;;
34565;SDS011;20803;42.676;26.348;2022-07-06T11:36:31;10.13;;;6.20;;
34565;SDS011;20803;42.676;26.348;2022-07-06T11:38:57;7.90;;;5.67;;
34565;SDS011;20803;42.676;26.348;2022-07-06T11:41:23;6.57;;;5.70;;
34565;SDS011;20803;42.676;26.348;2022-07-06T11:43:48;6.70;;;5.70;;
34565;SDS011;20803;42.676;26.348;2022-07-06T11:46:26;8.07;;;6.00;;
34565;SDS011;20803;42.676;26.348;2022-07-06T11:49:05;6.63;;;4.80;;
34565;SDS011;20803;42.676;26.348;2022-07-06T11:51:36;6.13;;;5.40;;
34565;SDS011;20803;42.676;26.348;2022-07-06T11:54:10;8.07;;;5.83;;
34565;SDS011;20803;42.676;26.348;2022-07-06T11:56:50;8.00;;;7.20;;
34565;SDS011;20803;42.676;26.348;2022-07-06T11:59:20;7.97;;;7.23;;
34565;SDS011;20803;42.676;26.348;2022-07-06T12:01:47;6.57;;;5.50;;
34565;SDS011;20803;42.676;26.348;2022-07-06T12:04:12;7.53;;;6.83;;
34565;SDS011;20803;42.676;26.348;2022-07-06T12:06:38;7.00;;;6.30;;
34565;SDS011;20803;42.676;26.348;2022-07-06T12:09:03;7.50;;;6.80;;
34565;SDS011;20803;42.676;26.348;2022-07-06T12:11:35;9.63;;;6.50;;
34565;SDS011;20803;42.676;26.348;2022-07-06T12:14:02;8.33;;;7.13;;
34565;SDS011;20803;42.676;26.348;2022-07-06T12:16:38;9.17;;;7.43;;
34565;SDS011;20803;42.676;26.348;2022-07-06T12:19:04;8.07;;;6.83;;
34565;SDS011;20803;42.676;26.348;2022-07-06T12:21:31;8.20;;;7.10;;
34565;SDS011;20803;42.676;26.348;2022-07-06T12:23:58;8.53;;;6.27;;
34565;SDS011;20803;42.676;26.348;2022-07-06T12:26:24;7.07;;;6.40;;
34565;SDS011;20803;42.676;26.348;2022-07-06T12:31:33;10.93;;;6.03;;
34565;SDS011;20803;42.676;26.348;2022-07-06T12:34:01;7.10;;;5.87;;
34565;SDS011;20803;42.676;26.348;2022-07-06T12:36:27;6.00;;;5.40;;
34565;SDS011;20803;42.676;26.348;2022-07-06T12:38:53;15.70;;;7.13;;
34565;SDS011;20803;42.676;26.348;2022-07-06T12:41:31;7.17;;;6.20;;
34565;SDS011;20803;42.676;26.348;2022-07-06T12:44:41;9.97;;;6.50;;
34565;SDS011;20803;42.676;26.348;2022-07-06T12:47:08;7.27;;;6.57;;
34565;SDS011;20803;42.676;26.348;2022-07-06T12:49:35;6.70;;;5.93;;
34565;SDS011;20803;42.676;26.348;2022-07-06T12:52:02;6.53;;;5.93;;
34565;SDS011;20803;42.676;26.348;2022-07-06T12:57:13;7.87;;;7.00;;
34565;SDS011;20803;42.676;26.348;2022-07-06T13:00:03;12.37;;;6.63;;
34565;SDS011;20803;42.676;26.348;2022-07-06T13:02:31;8.00;;;7.20;;
34565;SDS011;20803;42.676;26.348;2022-07-06T13:05:01;11.97;;;7.20;;
34565;SDS011;20803;42.676;26.348;2022-07-06T13:07:29;10.97;;;7.10;;
34565;SDS011;20803;42.676;26.348;2022-07-06T13:09:57;7.07;;;6.30;;
34565;SDS011;20803;42.676;26.348;2022-07-06T13:12:22;7.63;;;6.67;;
34565;SDS011;20803;42.676;26.348;2022-07-06T13:14:48;8.87;;;6.63;;
34565;SDS011;20803;42.676;26.348;2022-07-06T13:17:14;8.83;;;7.00;;
34565;SDS011;20803;42.676;26.348;2022-07-06T13:19:40;7.90;;;6.90;;
34565;SDS011;20803;42.676;26.348;2022-07-06T13:22:05;10.33;;;6.93;;
34565;SDS011;20803;42.676;26.348;2022-07-06T13:24:31;7.60;;;6.77;;
34565;SDS011;20803;42.676;26.348;2022-07-06T13:26:56;8.37;;;6.23;;
34565;SDS011;20803;42.676;26.348;2022-07-06T13:29:22;8.73;;;6.43;;
34565;SDS011;20803;42.676;26.348;2022-07-06T13:31:48;6.77;;;6.03;;
34565;SDS011;20803;42.676;26.348;2022-07-06T13:34:14;7.33;;;6.33;;
34565;SDS011;20803;42.676;26.348;2022-07-06T13:36:39;10.60;;;6.53;;
34565;SDS011;20803;42.676;26.348;2022-07-06T13:39:05;8.40;;;6.77;;
34565;SDS011;20803;42.676;26.348;2022-07-06T13:41:32;7.87;;;6.20;;
34565;SDS011;20803;42.676;26.348;2022-07-06T13:43:57;8.43;;;6.10;;
34565;SDS011;20803;42.676;26.348;2022-07-06T13:46:25;9.87;;;6.70;;
34565;SDS011;20803;42.676;26.348;2022-07-06T13:48:52;8.30;;;7.13;;
34565;SDS011;20803;42.676;26.348;2022-07-06T13:51:18;7.47;;;6.77;;
34565;SDS011;20803;42.676;26.348;2022-07-06T13:53:43;10.90;;;7.20;;
34565;SDS011;20803;42.676;26.348;2022-07-06T13:56:10;7.63;;;6.53;;
34565;SDS011;20803;42.676;26.348;2022-07-06T13:58:36;11.57;;;6.70;;
34565;SDS011;20803;42.676;26.348;2022-07-06T14:01:01;8.57;;;6.67;;
34565;SDS011;20803;42.676;26.348;2022-07-06T14:03:28;6.80;;;6.20;;
34565;SDS011;20803;42.676;26.348;2022-07-06T14:05:58;7.43;;;6.23;;
34565;SDS011;20803;42.676;26.348;2022-07-06T14:08:25;11.30;;;6.50;;
34565;SDS011;20803;42.676;26.348;2022-07-06T14:10:51;6.93;;;6.30;;
34565;SDS011;20803;42.676;26.348;2022-07-06T14:13:18;8.90;;;6.70;;
34565;SDS011;20803;42.676;26.348;2022-07-06T14:15:44;9.10;;;6.60;;
34565;SDS011;20803;42.676;26.348;2022-07-06T14:18:10;7.50;;;6.20;;
34565;SDS011;20803;42.676;26.348;2022-07-06T14:20:35;7.23;;;5.70;;
34565;SDS011;20803;42.676;26.348;2022-07-06T14:23:01;6.43;;;5.83;;
34565;SDS011;20803;42.676;26.348;2022-07-06T14:25:26;7.07;;;6.00;;
34565;SDS011;20803;42.676;26.348;2022-07-06T14:27:52;6.80;;;6.20;;
34565;SDS011;20803;42.676;26.348;2022-07-06T14:30:17;8.87;;;6.73;;
34565;SDS011;20803;42.676;26.348;2022-07-06T14:32:45;8.23;;;6.23;;
34565;SDS011;20803;42.676;26.348;2022-07-06T14:35:11;7.20;;;6.57;;
34565;SDS011;20803;42.676;26.348;2022-07-06T14:37:37;7.00;;;6.30;;
34565;SDS011;20803;42.676;26.348;2022-07-06T14:40:03;9.57;;;7.30;;
34565;SDS011;20803;42.676;26.348;2022-07-06T14:42:29;10.73;;;6.80;;
34565;SDS011;20803;42.676;26.348;2022-07-06T14:44:54;6.80;;;6.20;;
34565;SDS011;20803;42.676;26.348;2022-07-06T14:47:20;7.10;;;6.17;;
34565;SDS011;20803;42.676;26.348;2022-07-06T14:49:45;7.13;;;6.23;;
34565;SDS011;20803;42.676;26.348;2022-07-06T14:52:10;6.70;;;6.10;;